createdAt,value
2023-03-16T00:01:42.794Z,2.10
2023-03-16T00:04:09.459Z,2.22
2023-03-16T00:06:36.674Z,2.00
2023-03-16T00:09:04.144Z,2.08
2023-03-16T00:11:30.704Z,3.08
2023-03-16T00:13:58.561Z,2.47
2023-03-16T00:16:25.148Z,2.13
2023-03-16T00:18:51.662Z,2.50
2023-03-16T00:21:18.132Z,2.63
2023-03-16T00:23:44.639Z,2.00
2023-03-16T00:26:13.073Z,2.55
2023-03-16T00:28:39.989Z,2.15
2023-03-16T00:31:08.865Z,2.38
2023-03-16T00:33:35.378Z,2.05
2023-03-16T00:36:02.796Z,2.08
2023-03-16T00:38:35.047Z,2.78
2023-03-16T00:41:06.658Z,2.15
2023-03-16T00:43:41.026Z,2.38
2023-03-16T00:46:09.308Z,2.58
2023-03-16T00:48:38.104Z,2.63
2023-03-16T00:51:07.318Z,3.28
2023-03-16T00:53:34.873Z,2.55
2023-03-16T00:56:05.478Z,2.30
2023-03-16T00:58:37.377Z,2.87
2023-03-16T01:01:09.011Z,2.20
2023-03-16T01:03:36.207Z,2.95
2023-03-16T01:06:15.191Z,2.65
2023-03-16T01:08:42.021Z,2.20
2023-03-16T01:11:11.550Z,2.60
2023-03-16T01:13:38.903Z,2.83
2023-03-16T01:16:06.678Z,2.40
2023-03-16T01:18:35.992Z,2.55
2023-03-16T01:21:04.289Z,2.25
2023-03-16T01:23:31.525Z,2.70
2023-03-16T01:25:59.446Z,2.30
2023-03-16T01:28:28.252Z,2.70
2023-03-16T01:30:59.060Z,2.25
2023-03-16T01:33:26.802Z,2.45
2023-03-16T01:35:59.101Z,2.45
2023-03-16T01:38:26.140Z,3.30
2023-03-16T01:40:54.260Z,2.67
2023-03-16T01:43:23.984Z,2.67
2023-03-16T01:46:05.790Z,2.72
2023-03-16T01:48:54.533Z,2.40
2023-03-16T01:51:38.322Z,3.67
2023-03-16T01:54:14.487Z,2.38
2023-03-16T01:57:06.402Z,2.58
2023-03-16T01:59:53.130Z,2.90
2023-03-16T02:02:23.860Z,2.85
2023-03-16T02:05:07.022Z,3.25
2023-03-16T02:07:40.198Z,2.47
2023-03-16T02:10:07.585Z,2.00
2023-03-16T02:12:34.003Z,2.78
2023-03-16T02:15:00.395Z,2.95
2023-03-16T02:17:30.896Z,2.15
2023-03-16T02:20:16.221Z,2.83
2023-03-16T02:22:48.880Z,2.47
2023-03-16T02:25:18.331Z,3.05
2023-03-16T02:27:56.712Z,2.92
2023-03-16T02:30:23.389Z,2.78
2023-03-16T02:32:53.687Z,2.40
2023-03-16T02:35:21.074Z,2.05
2023-03-16T02:37:47.494Z,2.50
2023-03-16T02:40:21.420Z,2.90
2023-03-16T02:43:02.723Z,2.10
2023-03-16T02:45:34.583Z,2.90
2023-03-16T02:48:05.444Z,3.88
2023-03-16T02:50:31.868Z,2.90
2023-03-16T02:52:58.288Z,2.67
2023-03-16T02:55:24.714Z,2.40
2023-03-16T02:57:52.162Z,3.53
2023-03-16T03:00:19.282Z,3.10
2023-03-16T03:02:46.127Z,3.10
2023-03-16T03:05:12.761Z,2.78
2023-03-16T03:07:39.272Z,3.20
2023-03-16T03:10:06.945Z,3.00
2023-03-16T03:12:34.184Z,2.97
2023-03-16T03:15:00.724Z,2.05
2023-03-16T03:17:30.100Z,2.67
2023-03-16T03:20:02.369Z,2.45
2023-03-16T03:22:28.863Z,2.70
2023-03-16T03:24:55.338Z,2.92
2023-03-16T03:27:22.450Z,2.42
2023-03-16T03:29:48.948Z,3.08
2023-03-16T03:32:15.394Z,3.30
2023-03-16T03:34:42.520Z,2.17
2023-03-16T03:37:09.234Z,3.03
2023-03-16T03:39:35.914Z,2.50
2023-03-16T03:42:03.029Z,3.15
2023-03-16T03:44:29.531Z,2.83
2023-03-16T03:46:55.981Z,2.80
2023-03-16T03:49:22.393Z,2.40
2023-03-16T03:51:48.946Z,4.20
2023-03-16T03:54:15.429Z,2.95
2023-03-16T03:56:41.871Z,2.97
2023-03-16T03:59:08.352Z,3.15
2023-03-16T04:01:34.764Z,2.55
2023-03-16T04:04:01.173Z,2.92
2023-03-16T04:06:27.860Z,3.00
2023-03-16T04:08:54.446Z,2.63
2023-03-16T04:11:21.381Z,2.47
2023-03-16T04:13:47.826Z,3.38
2023-03-16T04:16:16.287Z,2.83
2023-03-16T04:18:42.819Z,4.28
2023-03-16T04:21:15.767Z,3.10
2023-03-16T04:23:42.490Z,3.15
2023-03-16T04:26:09.173Z,2.85
2023-03-16T04:28:35.598Z,2.92
2023-03-16T04:31:04.580Z,3.15
2023-03-16T04:33:32.302Z,3.13
2023-03-16T04:35:59.285Z,3.80
2023-03-16T04:38:25.904Z,3.45
2023-03-16T04:40:52.297Z,3.45
2023-03-16T04:43:18.688Z,2.90
2023-03-16T04:45:45.141Z,3.08
2023-03-16T04:48:11.917Z,3.10
2023-03-16T04:50:38.383Z,2.85
2023-03-16T04:53:04.933Z,3.10
2023-03-16T04:55:31.518Z,2.90
2023-03-16T04:57:58.296Z,2.97
2023-03-16T05:00:25.610Z,3.42
2023-03-16T05:02:52.399Z,5.00
2023-03-16T05:05:19.522Z,3.70
2023-03-16T05:07:46.067Z,3.45
2023-03-16T05:10:15.824Z,3.20
2023-03-16T05:12:42.589Z,3.05
2023-03-16T05:15:09.615Z,4.00
2023-03-16T05:17:36.097Z,4.03
2023-03-16T05:20:15.858Z,3.30
2023-03-16T05:22:44.702Z,3.40
2023-03-16T05:25:15.073Z,3.88
2023-03-16T05:27:46.329Z,4.07
2023-03-16T05:30:14.009Z,3.50
2023-03-16T05:32:40.559Z,3.80
2023-03-16T05:35:07.400Z,2.92
2023-03-16T05:37:37.985Z,3.40
2023-03-16T05:40:16.900Z,4.47
2023-03-16T05:42:45.901Z,2.92
2023-03-16T05:45:14.556Z,2.88
2023-03-16T05:47:42.011Z,2.60
2023-03-16T05:50:11.146Z,3.35
2023-03-16T05:52:38.780Z,3.20
2023-03-16T05:55:06.975Z,3.50
2023-03-16T05:57:34.192Z,3.28
2023-03-16T06:00:02.210Z,3.67
2023-03-16T06:02:28.871Z,3.10
2023-03-16T06:04:55.355Z,2.75
2023-03-16T06:07:21.744Z,3.00
2023-03-16T06:09:48.399Z,3.58
2023-03-16T06:12:14.874Z,3.38
2023-03-16T06:14:41.336Z,4.53
2023-03-16T06:17:07.866Z,3.55
2023-03-16T06:19:34.268Z,3.40
2023-03-16T06:22:00.850Z,3.97
2023-03-16T06:24:27.448Z,4.75
2023-03-16T06:26:53.875Z,4.15
2023-03-16T06:29:20.270Z,4.63
2023-03-16T06:31:46.819Z,4.93
2023-03-16T06:34:13.215Z,3.67
2023-03-16T06:36:39.734Z,4.05
2023-03-16T06:39:06.352Z,3.95
2023-03-16T06:41:32.833Z,3.75
2023-03-16T06:43:59.298Z,3.63
2023-03-16T06:46:25.890Z,3.17
2023-03-16T06:48:52.374Z,4.18
2023-03-16T06:51:18.936Z,3.25
2023-03-16T06:53:45.497Z,3.58
2023-03-16T06:56:12.224Z,3.72
2023-03-16T06:58:38.585Z,3.60
2023-03-16T07:01:05.715Z,3.80
2023-03-16T07:03:32.143Z,3.83
2023-03-16T07:05:58.613Z,3.22
2023-03-16T07:08:25.071Z,3.65
2023-03-16T07:10:52.106Z,3.67
2023-03-16T07:13:18.739Z,3.97
2023-03-16T07:15:45.182Z,4.45
2023-03-16T07:18:14.370Z,3.38
2023-03-16T07:20:42.049Z,4.43
2023-03-16T07:23:08.683Z,4.28
2023-03-16T07:25:35.158Z,3.70
2023-03-16T07:28:01.786Z,4.57
2023-03-16T07:30:28.373Z,4.80
2023-03-16T07:32:55.078Z,4.18
2023-03-16T07:35:21.983Z,4.03
2023-03-16T07:37:48.463Z,4.50
2023-03-16T07:40:15.363Z,5.57
2023-03-16T07:42:42.377Z,5.43
2023-03-16T07:45:09.725Z,6.53
2023-03-16T07:47:36.532Z,7.35
2023-03-16T07:50:03.073Z,7.18
2023-03-16T07:52:29.510Z,7.10
2023-03-16T07:54:56.008Z,5.95
2023-03-16T07:57:22.633Z,5.68
2023-03-16T07:59:49.042Z,5.60
2023-03-16T08:02:18.324Z,4.68
2023-03-16T08:04:45.632Z,4.38
2023-03-16T08:07:14.266Z,4.00
2023-03-16T08:09:41.274Z,2.80
2023-03-16T08:12:09.172Z,3.10
2023-03-16T08:14:36.756Z,2.92
2023-03-16T08:17:05.109Z,3.35
2023-03-16T08:19:32.415Z,3.20
2023-03-16T08:22:02.083Z,3.65
2023-03-16T08:24:29.712Z,3.55
2023-03-16T08:26:57.444Z,3.17
2023-03-16T08:29:25.196Z,3.17
2023-03-16T08:31:57.815Z,3.22
2023-03-16T08:34:24.858Z,3.97
2023-03-16T08:36:51.312Z,4.38
2023-03-16T08:39:17.824Z,3.05
2023-03-16T08:41:45.757Z,3.13
2023-03-16T08:44:12.977Z,3.28
2023-03-16T08:46:40.605Z,2.67
2023-03-16T08:49:07.188Z,3.20
2023-03-16T08:51:33.684Z,3.72
2023-03-16T08:54:00.145Z,3.55
2023-03-16T08:56:26.616Z,3.40
2023-03-16T08:58:53.094Z,3.53
2023-03-16T09:01:20.323Z,5.25
2023-03-16T09:03:47.310Z,8.00
2023-03-16T09:06:17.033Z,4.03
2023-03-16T09:08:45.350Z,3.03
2023-03-16T09:11:15.695Z,2.67
2023-03-16T09:13:43.148Z,2.40
2023-03-16T09:16:11.981Z,4.10
2023-03-16T09:18:38.717Z,2.30
2023-03-16T09:21:07.765Z,4.15
2023-03-16T09:23:37.429Z,2.65
2023-03-16T09:26:07.482Z,2.42
2023-03-16T09:28:35.993Z,4.22
2023-03-16T09:31:03.279Z,2.45
2023-03-16T09:33:30.251Z,2.45
2023-03-16T09:35:57.493Z,3.03
2023-03-16T09:38:26.341Z,3.20
2023-03-16T09:41:08.800Z,3.78
2023-03-16T09:43:57.126Z,2.20
2023-03-16T09:46:36.474Z,2.70
2023-03-16T09:49:03.708Z,3.25
2023-03-16T09:51:43.460Z,2.20
2023-03-16T09:54:22.224Z,2.65
2023-03-16T09:57:26.231Z,2.28
2023-03-16T10:00:11.129Z,1.88
2023-03-16T10:03:15.116Z,2.58
2023-03-16T10:05:42.027Z,2.78
2023-03-16T10:08:12.678Z,2.20
2023-03-16T10:10:46.891Z,2.23
2023-03-16T10:13:27.621Z,2.30
2023-03-16T10:15:56.742Z,2.80
2023-03-16T10:18:29.274Z,2.72
2023-03-16T10:20:58.006Z,2.17
2023-03-16T10:23:26.023Z,2.30
2023-03-16T10:25:56.587Z,2.17
2023-03-16T10:28:26.215Z,1.92
2023-03-16T10:30:58.990Z,1.83
2023-03-16T10:33:27.041Z,2.13
2023-03-16T10:36:10.173Z,2.20
2023-03-16T10:38:55.213Z,3.30
2023-03-16T10:41:23.780Z,2.05
2023-03-16T10:43:51.849Z,1.58
2023-03-16T10:46:18.908Z,1.88
2023-03-16T10:49:00.009Z,1.77
2023-03-16T10:51:32.577Z,1.70
2023-03-16T10:54:16.201Z,1.80
2023-03-16T10:56:42.758Z,2.28
2023-03-16T10:59:15.217Z,1.67
2023-03-16T11:01:48.836Z,2.45
2023-03-16T11:04:17.901Z,2.67
2023-03-16T11:06:58.273Z,2.42
2023-03-16T11:09:32.938Z,2.47
2023-03-16T11:12:00.812Z,2.03
2023-03-16T11:14:28.617Z,2.10
2023-03-16T11:17:09.389Z,2.75
2023-03-16T11:20:01.066Z,2.07
2023-03-16T11:22:30.057Z,2.67
2023-03-16T11:24:56.416Z,1.58
2023-03-16T11:27:24.515Z,1.50
2023-03-16T11:30:22.071Z,1.60
2023-03-16T11:32:51.139Z,2.65
2023-03-16T11:35:19.543Z,1.80
2023-03-16T11:37:58.747Z,2.53
2023-03-16T11:40:47.280Z,1.52
2023-03-16T11:43:28.705Z,1.95
2023-03-16T11:46:03.911Z,1.50
2023-03-16T11:48:48.273Z,1.75
2023-03-16T11:51:42.296Z,1.30
2023-03-16T11:54:26.777Z,1.83
2023-03-16T11:56:59.438Z,2.15
2023-03-16T11:59:32.166Z,1.42
2023-03-16T12:02:17.049Z,1.63
2023-03-16T12:05:28.800Z,1.73
2023-03-16T12:08:01.513Z,1.70
2023-03-16T12:10:52.854Z,2.03
2023-03-16T12:13:19.898Z,1.85
2023-03-16T12:15:53.497Z,1.52
2023-03-16T12:18:30.357Z,1.60
2023-03-16T12:21:04.155Z,2.55
2023-03-16T12:23:36.621Z,1.40
2023-03-16T12:26:03.748Z,1.13
2023-03-16T12:28:33.325Z,1.27
2023-03-16T12:31:10.615Z,1.40
2023-03-16T12:33:52.923Z,1.23
2023-03-16T12:36:50.781Z,1.35
2023-03-16T12:40:05.608Z,3.00
2023-03-16T12:42:41.540Z,1.83
2023-03-16T12:45:17.707Z,1.73
2023-03-16T12:48:00.110Z,1.98
2023-03-16T12:50:27.231Z,1.92
2023-03-16T12:52:54.100Z,2.13
2023-03-16T12:55:24.494Z,1.30
2023-03-16T12:57:58.778Z,1.30
2023-03-16T13:00:35.781Z,1.05
2023-03-16T13:03:03.459Z,1.42
2023-03-16T13:05:32.840Z,1.20
2023-03-16T13:08:25.840Z,1.25
2023-03-16T13:11:05.707Z,1.42
2023-03-16T13:13:34.098Z,2.60
2023-03-16T13:16:10.135Z,1.48
2023-03-16T13:21:41.674Z,1.00
2023-03-16T13:24:26.036Z,1.10
2023-03-16T13:27:02.477Z,1.55
2023-03-16T13:29:31.281Z,2.03
2023-03-16T13:32:08.736Z,1.30
2023-03-16T13:34:49.198Z,1.80
2023-03-16T13:37:19.743Z,1.77
2023-03-16T13:40:00.261Z,1.73
2023-03-16T13:42:32.349Z,1.33
2023-03-16T13:45:07.897Z,1.50
2023-03-16T13:47:34.452Z,3.35
2023-03-16T13:50:00.987Z,2.45
2023-03-16T13:52:30.726Z,1.45
2023-03-16T13:54:58.883Z,2.50
2023-03-16T13:57:31.928Z,1.63
2023-03-16T14:00:15.733Z,1.77
2023-03-16T14:02:44.304Z,1.85
2023-03-16T14:05:22.032Z,1.50
2023-03-16T14:07:51.093Z,1.70
2023-03-16T14:10:18.685Z,1.98
2023-03-16T14:12:57.542Z,1.50
2023-03-16T14:15:28.166Z,2.05
2023-03-16T14:18:12.305Z,2.80
2023-03-16T14:20:41.612Z,2.00
2023-03-16T14:23:36.415Z,1.98
2023-03-16T14:26:05.675Z,1.50
2023-03-16T14:28:33.916Z,1.38
2023-03-16T14:31:11.690Z,1.38
2023-03-16T14:33:42.962Z,1.50
2023-03-16T14:36:18.711Z,0.90
2023-03-16T14:38:48.284Z,1.42
2023-03-16T14:41:27.961Z,0.93
2023-03-16T14:43:58.017Z,1.17
2023-03-16T14:46:53.504Z,0.90
2023-03-16T14:49:26.141Z,1.02
2023-03-16T14:51:55.377Z,0.85
2023-03-16T14:54:23.092Z,1.30
2023-03-16T14:57:00.783Z,1.15
2023-03-16T14:59:27.620Z,0.90
2023-03-16T15:01:55.183Z,0.95
2023-03-16T15:04:34.460Z,1.05
2023-03-16T15:07:21.837Z,1.42
2023-03-16T15:09:50.523Z,1.13
2023-03-16T15:12:19.556Z,1.13
2023-03-16T15:15:05.893Z,1.45
2023-03-16T15:17:32.479Z,1.40
2023-03-16T15:19:59.181Z,1.38
2023-03-16T15:22:32.552Z,0.90
2023-03-16T15:25:00.107Z,0.80
2023-03-16T15:27:32.999Z,1.15
2023-03-16T15:29:59.736Z,1.00
2023-03-16T15:32:26.412Z,1.27
2023-03-16T15:34:53.017Z,0.70
2023-03-16T15:37:20.319Z,0.85
2023-03-16T15:39:47.437Z,2.25
2023-03-16T15:42:18.761Z,0.88
2023-03-16T15:44:46.476Z,0.88
2023-03-16T15:47:13.373Z,0.98
2023-03-16T15:49:47.286Z,1.27
2023-03-16T15:52:31.732Z,1.40
2023-03-16T15:55:03.060Z,1.98
2023-03-16T15:57:29.507Z,1.20
2023-03-16T15:59:55.956Z,1.02
2023-03-16T16:02:29.991Z,1.13
2023-03-16T16:04:57.321Z,1.40
2023-03-16T16:07:24.482Z,1.20
2023-03-16T16:09:51.190Z,0.90
2023-03-16T16:12:20.301Z,1.20
2023-03-16T16:14:47.098Z,1.30
2023-03-16T16:17:24.773Z,1.08
2023-03-16T16:19:53.590Z,0.77
2023-03-16T16:22:20.203Z,1.00
2023-03-16T16:24:47.284Z,1.05
2023-03-16T16:27:13.830Z,0.65
2023-03-16T16:29:43.534Z,1.35
2023-03-16T16:32:22.506Z,0.90
2023-03-16T16:35:03.307Z,1.48
2023-03-16T16:37:30.319Z,0.98
2023-03-16T16:39:56.919Z,0.80
2023-03-16T16:42:23.405Z,1.10
2023-03-16T16:44:57.190Z,1.85
2023-03-16T16:47:23.678Z,1.08
2023-03-16T16:49:51.082Z,1.10
2023-03-16T16:52:18.466Z,0.80
2023-03-16T16:54:45.012Z,1.17
2023-03-16T16:57:20.088Z,1.10
2023-03-16T16:59:47.930Z,1.02
2023-03-16T17:02:27.759Z,1.65
2023-03-16T17:04:54.330Z,1.75
2023-03-16T17:07:20.967Z,2.20
2023-03-16T17:09:47.545Z,2.78
2023-03-16T17:12:21.669Z,1.95
2023-03-16T17:14:51.862Z,1.90
2023-03-16T17:17:18.822Z,2.92
2023-03-16T17:19:46.593Z,3.10
2023-03-16T17:22:31.209Z,1.63
2023-03-16T17:24:58.395Z,1.70
2023-03-16T17:27:28.408Z,1.67
2023-03-16T17:29:55.933Z,1.52
2023-03-16T17:32:22.789Z,1.30
2023-03-16T17:34:50.168Z,1.25
2023-03-16T17:37:22.056Z,1.08
2023-03-16T17:39:48.856Z,1.20
2023-03-16T17:42:22.412Z,1.27
2023-03-16T17:44:52.065Z,1.58
2023-03-16T17:47:21.395Z,1.20
2023-03-16T17:49:49.023Z,1.38
2023-03-16T17:52:18.915Z,1.30
2023-03-16T17:54:46.956Z,1.13
2023-03-16T17:57:19.866Z,1.55
2023-03-16T17:59:47.195Z,1.40
2023-03-16T18:02:43.887Z,1.55
2023-03-16T18:05:22.069Z,1.30
2023-03-16T18:07:49.348Z,1.23
2023-03-16T18:10:22.321Z,1.30
2023-03-16T18:12:55.008Z,1.30
2023-03-16T18:15:23.023Z,1.40
2023-03-16T18:17:50.774Z,1.48
2023-03-16T18:20:23.059Z,1.77
2023-03-16T18:22:50.205Z,1.63
2023-03-16T18:25:35.253Z,1.52
2023-03-16T18:28:02.577Z,1.15
2023-03-16T18:30:30.653Z,1.33
2023-03-16T18:32:58.464Z,1.42
2023-03-16T18:35:25.322Z,1.55
2023-03-16T18:37:54.801Z,1.35
2023-03-16T18:40:23.524Z,1.30
2023-03-16T18:42:51.091Z,1.58
2023-03-16T18:45:17.592Z,2.15
2023-03-16T18:47:49.518Z,1.67
2023-03-16T18:50:21.415Z,1.40
2023-03-16T18:52:48.597Z,1.33
2023-03-16T18:55:18.438Z,3.55
2023-03-16T18:57:47.662Z,4.03
2023-03-16T19:00:23.467Z,2.83
2023-03-16T19:03:02.992Z,1.30
2023-03-16T19:05:35.772Z,1.75
2023-03-16T19:08:05.094Z,1.40
2023-03-16T19:10:36.740Z,1.73
2023-03-16T19:15:32.784Z,1.10
2023-03-16T19:17:59.983Z,1.17
2023-03-16T19:20:32.669Z,1.70
2023-03-16T19:23:20.240Z,1.95
2023-03-16T19:25:47.579Z,2.35
2023-03-16T19:28:19.843Z,1.88
2023-03-16T19:30:47.351Z,1.95
2023-03-16T19:33:27.978Z,1.80
2023-03-16T19:35:55.847Z,2.03
2023-03-16T19:38:23.878Z,1.63
2023-03-16T19:40:56.632Z,1.80
2023-03-16T19:43:23.988Z,1.83
2023-03-16T19:45:51.395Z,1.65
2023-03-16T19:48:21.345Z,1.55
2023-03-16T19:50:49.261Z,1.67
2023-03-16T19:53:18.974Z,1.65
2023-03-16T19:55:50.939Z,1.83
2023-03-16T19:58:33.386Z,1.77
2023-03-16T20:01:01.149Z,1.83
2023-03-16T20:03:29.249Z,2.45
2023-03-16T20:05:55.701Z,1.50
2023-03-16T20:08:25.458Z,1.85
2023-03-16T20:10:54.376Z,1.77
2023-03-16T20:13:21.457Z,2.03
2023-03-16T20:15:48.099Z,3.67
2023-03-16T20:18:18.623Z,3.08
2023-03-16T20:20:46.184Z,2.95
2023-03-16T20:23:21.676Z,2.03
2023-03-16T20:25:49.046Z,1.98
2023-03-16T20:28:22.763Z,1.60
2023-03-16T20:30:50.604Z,1.80
2023-03-16T20:33:23.775Z,1.90
2023-03-16T20:35:54.710Z,1.67
2023-03-16T20:38:22.499Z,2.30
2023-03-16T20:40:52.291Z,1.83
2023-03-16T20:43:31.302Z,1.52
2023-03-16T20:46:01.340Z,2.08
2023-03-16T20:48:28.434Z,1.60
2023-03-16T20:50:56.306Z,1.80
2023-03-16T20:53:23.581Z,1.90
2023-03-16T20:55:51.759Z,2.22
2023-03-16T20:58:24.485Z,2.25
2023-03-16T21:00:53.064Z,1.63
2023-03-16T21:03:22.417Z,1.63
2023-03-16T21:05:53.346Z,2.55
2023-03-16T21:08:20.033Z,2.72
2023-03-16T21:10:48.960Z,1.85
2023-03-16T21:13:22.737Z,2.13
2023-03-16T21:15:52.455Z,2.85
2023-03-16T21:18:20.775Z,2.10
2023-03-16T21:20:49.567Z,1.88
2023-03-16T21:23:23.595Z,2.20
2023-03-16T21:25:52.064Z,2.67
2023-03-16T21:28:20.398Z,2.22
2023-03-16T21:30:49.170Z,2.40
2023-03-16T21:33:20.259Z,1.95
2023-03-16T21:35:47.072Z,1.92
2023-03-16T21:38:20.438Z,2.25
2023-03-16T21:40:48.299Z,2.17
2023-03-16T21:43:15.679Z,4.13
2023-03-16T21:45:42.741Z,2.55
2023-03-16T21:48:25.672Z,3.58
2023-03-16T21:50:54.433Z,2.45
2023-03-16T21:53:27.075Z,2.10
2023-03-16T21:55:55.261Z,1.95
2023-03-16T21:58:23.158Z,2.30
2023-03-16T22:00:51.689Z,2.75
2023-03-16T22:03:47.963Z,2.50
2023-03-16T22:06:17.808Z,2.55
2023-03-16T22:08:44.425Z,2.55
2023-03-16T22:11:20.132Z,2.92
2023-03-16T22:13:47.501Z,3.20
2023-03-16T22:16:19.615Z,3.05
2023-03-16T22:18:48.662Z,2.80
2023-03-16T22:21:35.179Z,2.85
2023-03-16T22:24:05.257Z,2.83
2023-03-16T22:26:31.990Z,3.30
2023-03-16T22:29:00.859Z,3.50
2023-03-16T22:31:34.057Z,3.17
2023-03-16T22:34:03.126Z,2.95
2023-03-16T22:36:31.629Z,3.30
2023-03-16T22:39:01.519Z,2.83
2023-03-16T22:41:30.159Z,3.25
2023-03-16T22:43:57.059Z,2.80
2023-03-16T22:46:26.799Z,3.13
2023-03-16T22:48:54.589Z,4.22
2023-03-16T22:51:32.736Z,3.85
2023-03-16T22:54:04.754Z,4.72
2023-03-16T22:56:32.562Z,4.32
2023-03-16T22:59:02.894Z,3.72
2023-03-16T23:01:42.455Z,3.65
2023-03-16T23:04:24.672Z,4.55
2023-03-16T23:06:53.304Z,3.17
2023-03-16T23:09:21.766Z,3.72
2023-03-16T23:11:54.626Z,3.42
2023-03-16T23:14:27.234Z,3.88
2023-03-16T23:16:53.957Z,3.30
2023-03-16T23:19:26.561Z,3.42
2023-03-16T23:21:55.800Z,3.80
2023-03-16T23:24:22.861Z,3.22
2023-03-16T23:26:50.935Z,3.35
2023-03-16T23:29:17.667Z,3.70
2023-03-16T23:31:44.322Z,3.72
2023-03-16T23:34:13.000Z,4.28
2023-03-16T23:36:39.940Z,4.30
2023-03-16T23:39:07.228Z,4.32
2023-03-16T23:41:34.959Z,3.55
2023-03-16T23:44:02.699Z,3.50
2023-03-16T23:46:29.500Z,3.67
2023-03-16T23:48:58.468Z,4.40
2023-03-16T23:51:31.392Z,3.97
2023-03-16T23:53:58.805Z,4.75
2023-03-16T23:56:26.957Z,4.15
2023-03-16T23:58:54.453Z,4.85
